Time;durP1;ratioP1;P1;durP2;ratioP2;P2;SDS_P1;SDS_P2;PMS_P1;PMS_P2;Temp;Humidity;BMP_temperature;BMP_pressure;BME280_temperature;BME280_humidity;BME280_pressure;Samples;Min_cycle;Max_cycle;Signal;HPM_P1;HPM_P2
2023/03/19 00:00:12;;;;;;;25.02;18.38;;;10.40;99.90;;;;;;5010239;28;20069;-65
2023/03/19 00:02:37;;;;;;;23.60;18.48;;;10.40;99.90;;;;;;5013867;28;20527;-65
2023/03/19 00:05:04;;;;;;;25.25;17.85;;;10.40;99.90;;;;;;5012899;28;20042;-65
2023/03/19 00:07:30;;;;;;;25.05;19.10;;;10.40;99.90;;;;;;5001057;28;20045;-65
2023/03/19 00:09:55;;;;;;;28.48;19.42;;;10.40;99.90;;;;;;5018610;28;20037;-65
2023/03/19 00:12:22;;;;;;;30.23;21.02;;;10.40;99.90;;;;;;5017894;28;20034;-65
2023/03/19 00:14:47;;;;;;;27.63;20.75;;;10.40;99.90;;;;;;5017292;28;20092;-65
2023/03/19 00:17:13;;;;;;;27.67;19.42;;;10.40;99.90;;;;;;5010190;28;20407;-65
2023/03/19 00:19:38;;;;;;;27.98;19.35;;;10.40;99.90;;;;;;5003098;28;20077;-65
2023/03/19 00:22:04;;;;;;;29.00;19.25;;;10.40;99.90;;;;;;5011480;28;20054;-65
2023/03/19 00:24:30;;;;;;;28.60;19.27;;;10.40;99.90;;;;;;5014971;28;20037;-65
2023/03/19 00:26:56;;;;;;;28.20;18.95;;;10.40;99.90;;;;;;5013731;28;20053;-65
2023/03/19 00:29:22;;;;;;;26.02;18.33;;;10.40;99.90;;;;;;5014794;28;20117;-65
2023/03/19 00:31:48;;;;;;;25.63;19.25;;;10.40;99.90;;;;;;5014436;28;20041;-65
2023/03/19 00:34:17;;;;;;;26.25;17.85;;;10.40;99.90;;;;;;5011931;28;20067;-65
2023/03/19 00:36:42;;;;;;;24.50;18.40;;;10.40;99.90;;;;;;5014823;28;20038;-65
2023/03/19 00:39:08;;;;;;;25.52;18.67;;;10.40;99.90;;;;;;5014897;28;20046;-65
2023/03/19 00:41:34;;;;;;;25.83;19.05;;;10.30;99.90;;;;;;5014863;28;20037;-65
2023/03/19 00:43:59;;;;;;;28.02;20.10;;;10.40;99.90;;;;;;5014007;28;20495;-65
2023/03/19 00:46:26;;;;;;;27.75;19.25;;;10.40;99.90;;;;;;5013879;28;20038;-65
2023/03/19 00:48:54;;;;;;;27.40;19.38;;;10.40;99.90;;;;;;5010851;28;20048;-65
2023/03/19 00:51:20;;;;;;;29.27;19.48;;;10.40;99.90;;;;;;5013535;28;20042;-65
2023/03/19 00:53:46;;;;;;;24.92;18.92;;;10.40;99.90;;;;;;5014013;28;20040;-65
2023/03/19 00:56:14;;;;;;;28.75;18.60;;;10.40;99.90;;;;;;5014850;28;20034;-65
2023/03/19 00:58:40;;;;;;;27.52;19.50;;;10.40;99.90;;;;;;5014243;28;20045;-65
2023/03/19 01:01:11;;;;;;;27.27;19.95;;;10.40;99.90;;;;;;5012869;28;20050;-65
2023/03/19 01:03:37;;;;;;;31.70;19.60;;;10.40;99.90;;;;;;5006512;28;20045;-65
2023/03/19 01:06:03;;;;;;;25.10;18.35;;;10.40;99.90;;;;;;5014005;28;20038;-65
2023/03/19 01:08:29;;;;;;;25.65;18.58;;;10.40;99.90;;;;;;5026027;28;20037;-65
2023/03/19 01:10:55;;;;;;;26.15;18.63;;;10.40;99.90;;;;;;5014307;28;20373;-65
2023/03/19 01:13:21;;;;;;;25.70;17.33;;;10.40;99.90;;;;;;5017253;28;20041;-65
2023/03/19 01:15:50;;;;;;;26.08;17.55;;;10.40;99.90;;;;;;5010689;28;20041;-65
2023/03/19 01:18:16;;;;;;;23.92;17.20;;;10.40;99.90;;;;;;5011909;28;20129;-65
2023/03/19 01:20:41;;;;;;;25.70;17.67;;;10.40;99.90;;;;;;5008722;28;20470;-66
2023/03/19 01:23:07;;;;;;;23.77;17.08;;;10.40;99.90;;;;;;5014236;28;20034;-65
2023/03/19 01:25:33;;;;;;;24.10;16.52;;;10.30;99.90;;;;;;5013083;28;20377;-65
2023/03/19 01:27:59;;;;;;;22.73;16.10;;;10.30;99.90;;;;;;5018082;28;20519;-65
2023/03/19 01:30:24;;;;;;;21.27;15.75;;;10.40;99.90;;;;;;5012422;28;20037;-64
2023/03/19 01:32:50;;;;;;;22.30;15.57;;;10.40;99.90;;;;;;5012100;28;20038;-65
2023/03/19 01:35:15;;;;;;;20.77;15.52;;;10.40;99.90;;;;;;5026867;28;20128;-65
2023/03/19 01:37:41;;;;;;;19.95;15.40;;;10.40;99.90;;;;;;5025258;28;20044;-65
2023/03/19 01:40:11;;;;;;;20.73;14.95;;;10.40;99.90;;;;;;5014500;28;20443;-65
2023/03/19 01:43:05;;;;;;;20.83;14.30;;;10.40;99.90;;;;;;5010974;28;20040;-65
2023/03/19 01:45:37;;;;;;;22.65;14.88;;;10.40;99.90;;;;;;5012024;28;20443;-65
2023/03/19 01:48:04;;;;;;;17.75;13.55;;;10.40;99.90;;;;;;5018103;28;20425;-65
2023/03/19 01:50:43;;;;;;;20.45;14.43;;;10.40;99.90;;;;;;5011800;28;20096;-65
2023/03/19 01:53:10;;;;;;;18.30;13.02;;;10.40;99.90;;;;;;5016225;28;20527;-65
2023/03/19 01:55:38;;;;;;;18.10;12.60;;;10.50;99.90;;;;;;5021546;28;20038;-64
2023/03/19 01:58:05;;;;;;;18.25;12.68;;;10.50;99.90;;;;;;5010785;28;20046;-64
2023/03/19 02:00:33;;;;;;;16.98;12.68;;;10.50;99.90;;;;;;5006374;28;20038;-65
2023/03/19 02:03:00;;;;;;;17.98;12.23;;;10.60;99.90;;;;;;5012849;28;20045;-64
2023/03/19 02:05:27;;;;;;;17.75;12.75;;;10.60;99.90;;;;;;5008782;28;20403;-64
2023/03/19 02:08:00;;;;;;;17.60;12.57;;;10.60;99.90;;;;;;5020165;28;20163;-65
2023/03/19 02:10:30;;;;;;;20.05;11.82;;;10.60;99.90;;;;;;5021007;28;20044;-65
2023/03/19 02:12:55;;;;;;;18.98;12.48;;;10.60;99.90;;;;;;5006867;28;20404;-65
2023/03/19 02:15:21;;;;;;;19.00;12.30;;;10.70;99.90;;;;;;5012919;28;20038;-65
2023/03/19 02:17:47;;;;;;;17.40;12.48;;;10.70;99.90;;;;;;5006866;28;20042;-65
2023/03/19 02:20:41;;;;;;;15.13;12.05;;;10.70;99.90;;;;;;5011030;28;20038;-65
2023/03/19 02:23:17;;;;;;;18.50;12.30;;;10.70;99.90;;;;;;5010090;28;20042;-65
2023/03/19 02:25:45;;;;;;;17.92;10.90;;;10.70;99.90;;;;;;5009809;28;20050;-65
2023/03/19 02:28:14;;;;;;;14.02;10.68;;;10.60;99.90;;;;;;5010606;28;20061;-65
2023/03/19 02:30:42;;;;;;;14.30;10.20;;;10.60;99.90;;;;;;5010587;28;20123;-65
2023/03/19 02:33:13;;;;;;;15.05;11.20;;;10.60;99.90;;;;;;5013141;28;20069;-65
2023/03/19 02:35:40;;;;;;;15.63;10.65;;;10.60;99.90;;;;;;5010610;28;20458;-65
2023/03/19 02:38:06;;;;;;;15.18;10.93;;;10.60;99.90;;;;;;5011877;28;20049;-65
2023/03/19 02:40:38;;;;;;;12.77;8.45;;;10.60;99.90;;;;;;5011456;28;20041;-65
2023/03/19 02:43:03;;;;;;;15.48;9.52;;;10.60;99.90;;;;;;5012067;28;20037;-65
2023/03/19 02:45:31;;;;;;;14.18;9.18;;;10.60;99.90;;;;;;5008120;28;20507;-64
2023/03/19 02:47:56;;;;;;;12.70;8.90;;;10.50;99.90;;;;;;5012020;28;20034;-64
2023/03/19 02:50:22;;;;;;;11.48;8.63;;;10.50;99.90;;;;;;5009759;28;20060;-65
2023/03/19 02:52:48;;;;;;;13.80;8.65;;;10.50;99.90;;;;;;5010989;28;20052;-64
2023/03/19 02:55:14;;;;;;;11.65;8.77;;;10.50;99.90;;;;;;5010435;28;20675;-65
2023/03/19 02:57:39;;;;;;;13.00;9.07;;;10.50;99.90;;;;;;5017635;28;20029;-64
2023/03/19 03:00:07;;;;;;;13.40;10.18;;;10.50;99.90;;;;;;5010472;28;20400;-65
2023/03/19 03:02:33;;;;;;;14.48;10.32;;;10.50;99.90;;;;;;5009190;28;20033;-65
2023/03/19 03:04:59;;;;;;;14.02;9.82;;;10.50;99.90;;;;;;5005958;28;20052;-64
2023/03/19 03:07:24;;;;;;;16.73;9.50;;;10.50;99.90;;;;;;5020097;28;20124;-64
2023/03/19 03:09:50;;;;;;;13.98;9.27;;;10.50;99.90;;;;;;5030256;28;20120;-64
2023/03/19 03:12:15;;;;;;;12.23;10.02;;;10.50;99.90;;;;;;5023245;28;20045;-64
2023/03/19 03:14:41;;;;;;;12.75;9.30;;;10.50;99.90;;;;;;5008786;28;20466;-64
2023/03/19 03:17:07;;;;;;;12.35;9.52;;;10.50;99.90;;;;;;5011845;28;20064;-65
2023/03/19 03:19:33;;;;;;;12.57;8.88;;;10.50;99.90;;;;;;5011323;28;20042;-64
2023/03/19 03:21:59;;;;;;;12.68;9.52;;;10.40;99.90;;;;;;5016520;28;20052;-64
2023/03/19 03:24:26;;;;;;;13.48;9.48;;;10.40;99.90;;;;;;5012440;28;20133;-65
2023/03/19 03:26:51;;;;;;;12.18;9.40;;;10.40;99.90;;;;;;5011246;28;20136;-64
2023/03/19 03:29:17;;;;;;;12.77;9.45;;;10.40;99.90;;;;;;5009628;28;20116;-65
2023/03/19 03:31:42;;;;;;;11.48;8.85;;;10.40;99.90;;;;;;5011898;28;20069;-65
2023/03/19 03:34:08;;;;;;;10.73;8.32;;;10.40;99.90;;;;;;5010780;28;20080;-65
2023/03/19 03:36:33;;;;;;;10.60;8.07;;;10.40;99.90;;;;;;5011169;28;20037;-65
2023/03/19 03:38:59;;;;;;;12.32;8.52;;;10.40;99.90;;;;;;5010404;28;20033;-64
2023/03/19 03:41:25;;;;;;;11.40;8.75;;;10.40;99.90;;;;;;5010272;28;20049;-65
2023/03/19 03:43:51;;;;;;;11.18;7.72;;;10.40;99.90;;;;;;5007238;28;20164;-65
2023/03/19 03:46:16;;;;;;;10.48;7.40;;;10.40;99.90;;;;;;5010322;28;20038;-64
2023/03/19 03:48:42;;;;;;;10.30;7.28;;;10.40;99.90;;;;;;5011675;28;20033;-65
2023/03/19 03:51:08;;;;;;;8.55;7.13;;;10.40;99.90;;;;;;5011458;28;20077;-64
2023/03/19 03:53:34;;;;;;;11.27;7.03;;;10.40;99.90;;;;;;5010956;28;20038;-65
2023/03/19 03:56:00;;;;;;;9.23;6.82;;;10.40;99.90;;;;;;5011142;28;20653;-65
2023/03/19 03:58:25;;;;;;;8.52;6.15;;;10.30;99.90;;;;;;5012016;28;20037;-65
2023/03/19 04:00:51;;;;;;;8.60;6.43;;;10.40;99.90;;;;;;5009693;28;20111;-65
2023/03/19 04:03:18;;;;;;;7.80;5.78;;;10.30;99.90;;;;;;5015592;28;20044;-64
2023/03/19 04:05:44;;;;;;;8.27;6.30;;;10.30;99.90;;;;;;5018271;28;20403;-64
2023/03/19 04:08:10;;;;;;;8.93;6.65;;;10.30;99.90;;;;;;5014458;28;20045;-65
2023/03/19 04:10:39;;;;;;;7.45;5.88;;;10.30;99.90;;;;;;5023207;28;20073;-65
2023/03/19 04:13:05;;;;;;;7.82;6.00;;;10.30;99.90;;;;;;5004710;28;20042;-65
2023/03/19 04:15:30;;;;;;;7.45;5.70;;;10.30;99.90;;;;;;5013917;28;20112;-65
2023/03/19 04:17:56;;;;;;;7.03;5.07;;;10.30;99.90;;;;;;5019458;28;20149;-64
2023/03/19 04:20:23;;;;;;;7.63;5.00;;;10.30;99.90;;;;;;5017186;28;20527;-65
2023/03/19 04:22:51;;;;;;;6.68;5.03;;;10.30;99.90;;;;;;5015483;28;20097;-65
2023/03/19 04:25:17;;;;;;;7.57;5.10;;;10.30;99.90;;;;;;5016158;28;20492;-64
2023/03/19 04:27:43;;;;;;;7.00;4.93;;;10.30;99.90;;;;;;5016314;28;20040;-64
2023/03/19 04:30:10;;;;;;;6.55;4.68;;;10.30;99.90;;;;;;5014745;28;20037;-65
2023/03/19 04:32:36;;;;;;;7.38;5.30;;;10.30;99.90;;;;;;5012082;28;20037;-64
2023/03/19 04:35:02;;;;;;;9.07;5.30;;;10.30;99.90;;;;;;5013338;28;20038;-65
2023/03/19 04:37:27;;;;;;;7.00;5.10;;;10.30;99.90;;;;;;5015437;28;20046;-64
2023/03/19 04:39:53;;;;;;;5.53;4.68;;;10.30;99.90;;;;;;5018625;28;20038;-65
2023/03/19 04:42:19;;;;;;;7.32;5.00;;;10.40;99.90;;;;;;5014117;28;20562;-65
2023/03/19 04:44:44;;;;;;;8.15;5.00;;;10.30;99.90;;;;;;5005826;28;20054;-65
2023/03/19 04:47:10;;;;;;;8.45;5.18;;;10.30;99.90;;;;;;5014651;28;20033;-65
2023/03/19 04:49:36;;;;;;;6.60;4.80;;;10.30;99.90;;;;;;5013684;28;20045;-65
2023/03/19 04:52:01;;;;;;;8.70;5.30;;;10.30;99.90;;;;;;5018762;28;20042;-65
2023/03/19 04:54:27;;;;;;;6.47;4.82;;;10.30;99.90;;;;;;5019858;28;20046;-64
2023/03/19 04:56:53;;;;;;;6.55;4.97;;;10.30;99.90;;;;;;5012604;28;20045;-65
2023/03/19 04:59:18;;;;;;;7.43;4.90;;;10.30;99.90;;;;;;5056292;22;20494;-60
2023/03/19 05:01:46;;;;;;;7.55;5.32;;;10.30;99.90;;;;;;5067565;28;20528;-62
2023/03/19 05:04:12;;;;;;;5.57;4.80;;;10.30;99.90;;;;;;5072555;28;20064;-62
2023/03/19 05:06:37;;;;;;;7.55;5.18;;;10.30;99.90;;;;;;5072376;28;20508;-62
2023/03/19 05:09:03;;;;;;;7.45;5.10;;;10.20;99.90;;;;;;5067762;28;20060;-62
2023/03/19 05:11:29;;;;;;;6.78;5.00;;;10.20;99.90;;;;;;5049266;28;20044;-62
2023/03/19 05:13:55;;;;;;;7.22;4.97;;;10.20;99.90;;;;;;5053297;28;20043;-62
2023/03/19 05:16:21;;;;;;;7.22;5.28;;;10.20;99.90;;;;;;5047389;28;20041;-62
2023/03/19 05:18:47;;;;;;;6.20;5.20;;;10.20;99.90;;;;;;5053850;28;20037;-62
2023/03/19 05:21:13;;;;;;;5.18;4.68;;;10.20;99.90;;;;;;5052155;28;20059;-62
2023/03/19 05:23:39;;;;;;;7.68;5.35;;;10.10;99.90;;;;;;5052155;28;20076;-62
2023/03/19 05:26:05;;;;;;;6.43;4.75;;;10.10;99.90;;;;;;5053103;28;20453;-62
2023/03/19 05:28:31;;;;;;;7.15;4.93;;;10.10;99.90;;;;;;5054065;28;20037;-62
2023/03/19 05:30:57;;;;;;;6.82;5.05;;;10.10;99.90;;;;;;5057128;28;20037;-62
2023/03/19 05:33:23;;;;;;;6.40;5.25;;;10.00;99.90;;;;;;5053744;28;20037;-62
2023/03/19 05:35:49;;;;;;;6.85;4.68;;;10.00;99.90;;;;;;5054785;28;20050;-62
2023/03/19 05:38:16;;;;;;;6.10;5.20;;;9.90;99.90;;;;;;5051006;28;20522;-61
2023/03/19 05:40:42;;;;;;;6.65;5.30;;;9.90;99.90;;;;;;5050126;28;20108;-61
2023/03/19 05:43:09;;;;;;;6.55;5.22;;;9.90;99.90;;;;;;5061696;28;20476;-61
2023/03/19 05:45:35;;;;;;;6.25;5.32;;;9.90;99.90;;;;;;5039201;28;20053;-62
2023/03/19 05:48:02;;;;;;;7.78;5.55;;;9.80;99.90;;;;;;5050949;28;20111;-62
2023/03/19 05:50:27;;;;;;;8.70;5.70;;;9.80;99.90;;;;;;5043991;28;20113;-61
2023/03/19 05:52:53;;;;;;;7.93;5.45;;;9.80;99.90;;;;;;5025790;28;20041;-61
2023/03/19 05:55:19;;;;;;;8.85;6.03;;;9.70;99.90;;;;;;5054940;28;20399;-61
2023/03/19 05:57:44;;;;;;;7.40;5.68;;;9.80;99.90;;;;;;5058799;28;20119;-61
2023/03/19 06:00:11;;;;;;;7.80;6.20;;;9.80;99.90;;;;;;5073182;28;20037;-61
2023/03/19 06:02:36;;;;;;;8.35;5.90;;;9.80;99.90;;;;;;5056469;28;20082;-61
2023/03/19 06:05:03;;;;;;;7.80;6.55;;;9.80;99.90;;;;;;5063690;28;20117;-61
2023/03/19 06:07:28;;;;;;;7.90;6.22;;;9.80;99.90;;;;;;5052466;28;20072;-61
2023/03/19 06:09:54;;;;;;;9.10;6.20;;;9.80;99.90;;;;;;5032047;28;20589;-61
2023/03/19 06:12:20;;;;;;;9.07;5.95;;;9.80;99.90;;;;;;5034046;28;20087;-62
2023/03/19 06:14:46;;;;;;;9.65;6.18;;;9.80;99.90;;;;;;5041379;28;20095;-62
2023/03/19 06:17:12;;;;;;;8.80;6.15;;;9.80;99.90;;;;;;5039827;28;20379;-61
2023/03/19 06:19:38;;;;;;;9.55;6.25;;;9.80;99.90;;;;;;5039969;28;20097;-62
2023/03/19 06:22:03;;;;;;;8.88;6.65;;;9.80;99.90;;;;;;5033788;28;20041;-62
2023/03/19 06:24:29;;;;;;;8.52;6.35;;;9.80;99.90;;;;;;5044051;28;20136;-62
2023/03/19 06:26:55;;;;;;;9.82;6.60;;;9.80;99.90;;;;;;5041793;28;20044;-61
2023/03/19 06:29:20;;;;;;;9.00;6.20;;;9.90;99.90;;;;;;5042033;28;20044;-62
2023/03/19 06:31:46;;;;;;;7.95;6.07;;;9.90;99.90;;;;;;5042701;28;20048;-62
2023/03/19 06:34:12;;;;;;;7.28;6.30;;;9.90;99.90;;;;;;5027711;28;20413;-62
2023/03/19 06:36:38;;;;;;;7.40;6.15;;;9.90;99.90;;;;;;5026160;28;20040;-62
2023/03/19 06:39:03;;;;;;;8.60;6.60;;;9.90;99.90;;;;;;5026469;28;20037;-62
2023/03/19 06:41:29;;;;;;;8.45;7.18;;;9.90;99.90;;;;;;5029265;28;20896;-62
2023/03/19 06:43:55;;;;;;;9.15;6.68;;;9.90;99.90;;;;;;5055953;28;20044;-62
2023/03/19 06:46:21;;;;;;;9.98;7.03;;;10.00;99.90;;;;;;5036245;28;20073;-62
2023/03/19 06:48:46;;;;;;;10.80;6.97;;;10.00;99.90;;;;;;5036234;28;20065;-62
2023/03/19 06:51:12;;;;;;;8.73;6.90;;;10.10;99.90;;;;;;5040760;28;20083;-62
2023/03/19 06:53:38;;;;;;;8.10;6.47;;;10.10;99.90;;;;;;5039287;28;20040;-62
2023/03/19 06:56:04;;;;;;;10.32;6.47;;;10.10;99.90;;;;;;5054509;28;20090;-62
2023/03/19 06:58:30;;;;;;;8.70;6.60;;;10.10;99.90;;;;;;5066388;28;20076;-62
2023/03/19 07:00:55;;;;;;;8.48;6.50;;;10.10;99.90;;;;;;5048720;28;20075;-62
2023/03/19 07:03:21;;;;;;;8.30;7.10;;;10.10;99.90;;;;;;5048453;28;20037;-62
2023/03/19 07:05:50;;;;;;;9.50;7.13;;;10.10;99.90;;;;;;5054157;28;20056;-62
2023/03/19 07:08:16;;;;;;;9.57;7.20;;;10.10;99.90;;;;;;5065091;28;20040;-62
2023/03/19 07:10:42;;;;;;;9.88;7.30;;;10.10;99.90;;;;;;5048095;28;20418;-62
2023/03/19 07:13:07;;;;;;;12.85;7.93;;;10.10;99.90;;;;;;5052408;28;20040;-61
2023/03/19 07:15:33;;;;;;;9.40;7.97;;;10.10;99.90;;;;;;5058510;28;20147;-61
2023/03/19 07:17:59;;;;;;;10.82;7.97;;;10.10;99.90;;;;;;5050314;28;20033;-62
2023/03/19 07:20:24;;;;;;;12.73;8.32;;;10.10;99.90;;;;;;5058508;28;20051;-61
2023/03/19 07:22:50;;;;;;;12.73;8.43;;;10.20;99.90;;;;;;5049379;28;20489;-62
2023/03/19 07:25:16;;;;;;;11.70;8.32;;;10.20;99.90;;;;;;5047917;28;20033;-62
2023/03/19 07:27:42;;;;;;;13.85;8.32;;;10.30;99.90;;;;;;5048816;28;20040;-62
2023/03/19 07:30:08;;;;;;;12.82;8.27;;;10.30;99.90;;;;;;5047671;28;20394;-62
2023/03/19 07:32:34;;;;;;;10.73;8.43;;;10.40;99.90;;;;;;5049040;28;20048;-61
2023/03/19 07:35:00;;;;;;;12.75;8.98;;;10.40;99.90;;;;;;5050920;28;20044;-61
2023/03/19 07:37:26;;;;;;;12.80;8.82;;;10.50;99.90;;;;;;5048339;28;20120;-61
2023/03/19 07:39:51;;;;;;;13.15;9.05;;;10.50;99.90;;;;;;5051629;28;20044;-61
2023/03/19 07:42:17;;;;;;;11.95;8.48;;;10.50;99.90;;;;;;5061198;28;20048;-61
2023/03/19 07:44:42;;;;;;;13.57;9.23;;;10.50;99.90;;;;;;5048889;28;20160;-61
2023/03/19 07:47:08;;;;;;;12.55;9.00;;;10.60;99.90;;;;;;5045286;28;20073;-61
2023/03/19 07:49:34;;;;;;;14.00;9.82;;;10.60;99.90;;;;;;5045844;28;20034;-61
2023/03/19 07:51:59;;;;;;;12.93;9.63;;;10.70;99.90;;;;;;5057728;28;20047;-61
2023/03/19 07:54:25;;;;;;;13.27;9.75;;;10.70;99.90;;;;;;5057340;28;20037;-61
2023/03/19 07:56:50;;;;;;;16.65;10.68;;;10.70;99.90;;;;;;5051097;28;20045;-61
2023/03/19 07:59:16;;;;;;;14.70;10.07;;;10.70;99.90;;;;;;5051445;28;20041;-61
2023/03/19 08:01:41;;;;;;;14.70;10.30;;;10.80;99.90;;;;;;5048645;28;20293;-61
2023/03/19 08:04:07;;;;;;;17.23;10.65;;;10.80;99.90;;;;;;5049108;28;20041;-61
2023/03/19 08:06:37;;;;;;;16.75;11.43;;;10.80;99.90;;;;;;5051334;28;20025;-61
2023/03/19 08:09:03;;;;;;;17.05;11.43;;;10.90;99.90;;;;;;5048910;28;20044;-60
2023/03/19 08:11:28;;;;;;;15.52;10.73;;;10.90;99.90;;;;;;5068454;28;20029;-61
2023/03/19 08:13:54;;;;;;;17.45;12.05;;;11.00;99.90;;;;;;5066665;28;20072;-61
2023/03/19 08:16:20;;;;;;;18.58;11.75;;;11.00;99.90;;;;;;5056878;28;20041;-61
2023/03/19 08:18:48;;;;;;;19.98;12.48;;;11.10;99.90;;;;;;5059254;28;20037;-61
2023/03/19 08:21:14;;;;;;;20.90;12.77;;;11.10;99.90;;;;;;5050143;28;20522;-61
2023/03/19 08:23:39;;;;;;;19.58;12.88;;;11.10;99.90;;;;;;5051033;28;20040;-61
2023/03/19 08:26:05;;;;;;;20.58;12.48;;;11.20;99.90;;;;;;5050165;28;20052;-61
2023/03/19 08:28:31;;;;;;;19.88;12.80;;;11.20;99.90;;;;;;5049363;28;20044;-61
2023/03/19 08:30:57;;;;;;;18.02;12.75;;;11.20;99.90;;;;;;5044351;28;20116;-60
2023/03/19 08:33:22;;;;;;;19.70;12.70;;;11.30;99.90;;;;;;5045694;28;20040;-61
2023/03/19 08:35:48;;;;;;;19.63;12.10;;;11.30;99.90;;;;;;5044197;28;20076;-60
2023/03/19 08:38:13;;;;;;;21.13;13.02;;;11.40;99.90;;;;;;5044950;28;20173;-61
2023/03/19 08:40:39;;;;;;;20.08;12.88;;;11.40;99.90;;;;;;5048102;28;20041;-61
2023/03/19 08:43:05;;;;;;;22.45;13.38;;;11.40;99.90;;;;;;5057870;28;20045;-61
2023/03/19 08:45:31;;;;;;;18.75;12.88;;;11.40;99.90;;;;;;5056453;28;20056;-61
2023/03/19 08:47:57;;;;;;;18.15;11.95;;;11.50;99.90;;;;;;5049795;28;20032;-61
2023/03/19 08:50:23;;;;;;;20.58;13.02;;;11.70;99.90;;;;;;5047800;28;20410;-62
2023/03/19 08:52:48;;;;;;;20.02;12.15;;;11.80;99.90;;;;;;5051272;28;20110;-62
2023/03/19 08:55:15;;;;;;;19.08;12.70;;;11.90;99.90;;;;;;5050763;28;20132;-61
2023/03/19 08:57:41;;;;;;;19.08;12.88;;;12.10;99.90;;;;;;5054693;28;20040;-61
2023/03/19 09:00:07;;;;;;;19.02;12.45;;;12.10;99.90;;;;;;5042990;28;20048;-62
2023/03/19 09:02:33;;;;;;;16.17;11.77;;;12.30;99.90;;;;;;5052615;28;20037;-62
2023/03/19 09:04:58;;;;;;;17.05;11.70;;;12.40;99.90;;;;;;5052679;28;20047;-61
2023/03/19 09:07:24;;;;;;;14.82;11.10;;;12.40;99.90;;;;;;5052121;28;20044;-61
2023/03/19 09:09:49;;;;;;;17.23;11.45;;;12.40;99.90;;;;;;5072967;28;20119;-61
2023/03/19 09:12:17;;;;;;;16.52;11.02;;;12.30;99.90;;;;;;5061059;28;20085;-61
2023/03/19 09:14:43;;;;;;;15.68;11.52;;;12.40;99.90;;;;;;5054036;28;20040;-61
2023/03/19 09:17:09;;;;;;;16.48;10.88;;;12.30;99.90;;;;;;5051269;28;20037;-61
2023/03/19 09:19:35;;;;;;;18.25;12.18;;;12.40;99.90;;;;;;5062123;28;20056;-61
2023/03/19 09:22:02;;;;;;;14.57;10.38;;;12.50;99.90;;;;;;5052057;28;20101;-62
2023/03/19 09:24:27;;;;;;;15.40;9.98;;;12.60;99.90;;;;;;5053919;28;20504;-62
2023/03/19 09:26:53;;;;;;;16.02;10.73;;;12.60;99.90;;;;;;5064020;28;20037;-62
2023/03/19 09:29:19;;;;;;;17.17;11.50;;;12.70;99.90;;;;;;5049633;28;20112;-62
2023/03/19 09:31:45;;;;;;;17.38;10.38;;;12.60;99.90;;;;;;5059873;28;20040;-62
2023/03/19 09:34:12;;;;;;;13.85;9.25;;;12.50;99.90;;;;;;5055667;28;20068;-61
2023/03/19 09:36:38;;;;;;;16.77;10.02;;;12.50;99.90;;;;;;5072430;28;20041;-62
2023/03/19 09:39:05;;;;;;;15.35;10.65;;;12.50;99.90;;;;;;5060533;28;20086;-61
2023/03/19 09:41:30;;;;;;;16.00;10.95;;;12.50;99.90;;;;;;5043045;28;20033;-61
2023/03/19 09:44:02;;;;;;;16.85;10.35;;;12.50;99.90;;;;;;5033973;28;20071;-61
2023/03/19 09:46:43;;;;;;;14.40;9.57;;;12.50;99.90;;;;;;5038134;28;20486;-61
2023/03/19 09:49:26;;;;;;;14.00;9.18;;;12.50;99.90;;;;;;5059640;28;20074;-61
2023/03/19 09:52:10;;;;;;;12.80;9.48;;;12.60;99.90;;;;;;5054000;28;20040;-61
2023/03/19 09:54:43;;;;;;;13.77;9.77;;;12.70;99.90;;;;;;5060445;28;20033;-61
2023/03/19 09:57:10;;;;;;;13.02;9.00;;;12.80;99.90;;;;;;5073654;28;20451;-61
2023/03/19 09:59:35;;;;;;;12.68;9.27;;;13.00;99.90;;;;;;5073072;28;20047;-62
2023/03/19 10:02:39;;;;;;;12.20;8.55;;;13.10;99.90;;;;;;5058744;28;20033;-61
2023/03/19 10:05:21;;;;;;;12.27;8.88;;;13.20;99.90;;;;;;5055584;28;20051;-62
2023/03/19 10:08:05;;;;;;;13.52;9.40;;;13.10;99.90;;;;;;5057754;28;20036;-62
2023/03/19 10:10:43;;;;;;;13.80;9.98;;;13.10;99.90;;;;;;5063633;28;20033;-62
2023/03/19 10:13:39;;;;;;;12.27;7.85;;;13.00;99.90;;;;;;5057243;28;20067;-61
2023/03/19 10:16:10;;;;;;;12.68;8.68;;;12.90;99.90;;;;;;5049625;28;20136;-61
2023/03/19 10:18:38;;;;;;;;;;;12.90;99.90;;;;;;5059407;28;20040;-61
2023/03/19 10:21:21;;;;;;;13.43;9.70;;;12.90;99.90;;;;;;5063677;28;19920;-61
2023/03/19 10:23:58;;;;;;;17.50;10.90;;;12.90;99.90;;;;;;5061342;28;20040;-61
2023/03/19 10:26:34;;;;;;;13.25;9.40;;;12.90;99.90;;;;;;5052200;28;20375;-61
2023/03/19 10:29:07;;;;;;;13.00;9.70;;;12.90;99.90;;;;;;5043247;28;20037;-61
2023/03/19 10:32:06;;;;;;;13.93;10.00;;;12.90;99.90;;;;;;5050914;28;20044;-61
2023/03/19 10:34:36;;;;;;;12.20;8.93;;;13.00;99.90;;;;;;5052998;28;20045;-60
2023/03/19 10:37:19;;;;;;;14.50;9.87;;;12.90;99.90;;;;;;5050261;28;20048;-61
2023/03/19 10:39:49;;;;;;;16.90;10.35;;;12.90;99.90;;;;;;5040058;28;20060;-61
2023/03/19 10:42:43;;;;;;;15.30;11.20;;;12.90;99.90;;;;;;5033017;28;20045;-61
2023/03/19 10:45:17;;;;;;;16.40;10.73;;;13.00;99.90;;;;;;5046879;28;20047;-61
2023/03/19 10:47:43;;;;;;;16.35;11.43;;;13.10;99.90;;;;;;5056624;28;20491;-61
2023/03/19 10:50:22;;;;;;;18.52;12.02;;;13.10;99.90;;;;;;5051902;28;20040;-61
2023/03/19 10:52:59;;;;;;;16.80;12.38;;;13.20;99.90;;;;;;5063137;28;20069;-61
2023/03/19 10:55:28;;;;;;;14.68;10.27;;;13.10;99.90;;;;;;5065674;28;20041;-61
2023/03/19 10:58:14;;;;;;;13.82;9.73;;;13.10;99.90;;;;;;5072481;28;20127;-61
2023/03/19 11:00:39;;;;;;;13.35;10.15;;;13.10;99.90;;;;;;5050251;22;20503;-63
2023/03/19 11:03:27;;;;;;;15.10;10.55;;;13.10;99.90;;;;;;5031218;28;20040;-63
2023/03/19 11:06:04;;;;;;;16.17;10.70;;;13.10;99.90;;;;;;5020144;28;20049;-63
2023/03/19 11:08:32;;;;;;;16.00;10.40;;;13.20;99.90;;;;;;5017474;28;20036;-63
2023/03/19 11:10:58;;;;;;;15.85;10.60;;;13.20;99.90;;;;;;5030504;28;20037;-63
2023/03/19 11:13:25;;;;;;;16.13;11.02;;;13.30;99.90;;;;;;5022628;28;20395;-63
2023/03/19 11:15:53;;;;;;;15.73;10.73;;;13.50;99.90;;;;;;5022564;28;20048;-63
2023/03/19 11:18:23;;;;;;;13.30;9.50;;;13.50;99.90;;;;;;5020093;28;20076;-63
2023/03/19 11:21:04;;;;;;;14.93;11.27;;;13.60;99.90;;;;;;5031245;28;20049;-63
2023/03/19 11:23:37;;;;;;;17.00;10.70;;;13.80;99.90;;;;;;5031137;28;20518;-63
2023/03/19 11:26:03;;;;;;;14.70;10.43;;;13.80;99.90;;;;;;5030781;28;20391;-63
2023/03/19 11:28:32;;;;;;;13.70;10.25;;;13.80;99.90;;;;;;5024962;28;20053;-63
2023/03/19 11:31:20;;;;;;;13.80;9.80;;;13.80;99.90;;;;;;5029908;28;20079;-63
2023/03/19 11:34:22;;;;;;;16.50;10.57;;;13.90;99.90;;;;;;5028159;28;20054;-63
2023/03/19 11:37:15;;;;;;;11.38;9.57;;;14.00;99.90;;;;;;5031591;28;20092;-62
2023/03/19 11:40:06;;;;;;;14.43;10.23;;;14.10;99.90;;;;;;5031480;28;20041;-63
2023/03/19 11:42:44;;;;;;;16.38;10.98;;;14.10;99.90;;;;;;5028649;28;20174;-62
2023/03/19 11:45:24;;;;;;;15.70;10.93;;;14.10;99.90;;;;;;5030238;28;20429;-63
2023/03/19 11:48:05;;;;;;;13.98;10.15;;;14.00;99.90;;;;;;5023653;28;20448;-63
2023/03/19 11:50:43;;;;;;;16.80;11.52;;;13.90;99.90;;;;;;5030563;28;20029;-63
2023/03/19 11:53:28;;;;;;;15.70;11.27;;;13.90;99.90;;;;;;5023237;28;20115;-63
2023/03/19 11:56:18;;;;;;;13.95;10.40;;;14.00;99.90;;;;;;5029137;28;20037;-63
2023/03/19 11:59:27;;;;;;;15.63;10.30;;;14.00;99.90;;;;;;5029940;28;20383;-63
2023/03/19 12:02:16;;;;;;;16.92;11.00;;;14.10;99.90;;;;;;5007736;28;20136;-62
2023/03/19 12:04:52;;;;;;;14.50;10.80;;;14.30;99.90;;;;;;5030165;28;20042;-63
2023/03/19 12:07:35;;;;;;;17.23;10.48;;;14.60;99.90;;;;;;5030651;28;20082;-63
2023/03/19 12:10:16;;;;;;;14.65;10.57;;;14.70;99.90;;;;;;5023009;28;20079;-63
2023/03/19 12:13:01;;;;;;;15.35;10.88;;;14.80;99.90;;;;;;5029905;28;20038;-62
2023/03/19 12:15:34;;;;;;;16.67;10.98;;;14.80;99.90;;;;;;5027647;28;20038;-63
2023/03/19 12:18:29;;;;;;;15.57;10.43;;;14.90;99.90;;;;;;5031205;28;20107;-63
2023/03/19 12:21:00;;;;;;;16.05;11.63;;;15.00;99.90;;;;;;5021598;28;20068;-63
2023/03/19 12:23:31;;;;;;;;;;;14.90;99.90;;;;;;5031645;28;20041;-63
2023/03/19 12:26:44;;;;;;;16.52;10.65;;;14.90;99.90;;;;;;5033556;28;19925;-62
2023/03/19 12:29:27;;;;;;;17.40;11.05;;;15.00;99.90;;;;;;4987582;28;20072;-62
2023/03/19 12:32:08;;;;;;;17.27;11.00;;;15.00;99.90;;;;;;5035052;28;20052;-63
2023/03/19 12:34:40;;;;;;;;;;;15.10;99.90;;;;;;5035353;28;20091;-63
2023/03/19 12:37:36;;;;;;;16.17;10.90;;;15.20;99.90;;;;;;5015548;28;20204;-63
2023/03/19 12:40:11;;;;;;;17.52;11.77;;;15.30;99.90;;;;;;5026278;28;20411;-63
2023/03/19 12:42:39;;;;;;;14.10;9.88;;;15.30;99.90;;;;;;5031672;28;20033;-63
2023/03/19 12:45:23;;;;;;;16.45;10.48;;;15.30;99.90;;;;;;5033962;28;20464;-63